Time;durP1;ratioP1;P1;durP2;ratioP2;P2;SDS_P1;SDS_P2;PMS_P1;PMS_P2;Temp;Humidity;BMP_temperature;BMP_pressure;BME280_temperature;BME280_humidity;BME280_pressure;Samples;Min_cycle;Max_cycle;Signal;HPM_P1;HPM_P2
2023/06/06 00:00:38;;;;;;;6.53;2.30;;;;;;;19.15;36.87;101226.19;7392920;19;20545;-67
2023/06/06 00:03:10;;;;;;;5.80;2.60;;;;;;;19.13;37.35;101222.75;7394481;19;20031;-69
2023/06/06 00:05:38;;;;;;;2.95;2.20;;;;;;;19.09;37.37;101225.63;7394251;19;20010;-68
2023/06/06 00:08:07;;;;;;;7.35;2.20;;;;;;;19.07;37.55;101227.50;7392436;19;20428;-68
2023/06/06 00:10:36;;;;;;;2.47;2.10;;;;;;;19.02;37.55;101225.94;7393862;19;20021;-68
2023/06/06 00:13:05;;;;;;;4.32;2.20;;;;;;;18.98;37.88;101223.50;7395003;19;20082;-69
2023/06/06 00:15:34;;;;;;;3.88;2.17;;;;;;;18.95;37.80;101219.19;7391838;19;20425;-68
2023/06/06 00:18:03;;;;;;;4.63;2.45;;;;;;;18.93;38.32;101222.84;7394175;19;20023;-68
2023/06/06 00:20:35;;;;;;;2.38;2.08;;;;;;;18.89;38.04;101223.00;7393032;19;20377;-68
2023/06/06 00:23:04;;;;;;;7.30;2.28;;;;;;;18.88;38.46;101223.06;7394439;19;20011;-68
2023/06/06 00:25:33;;;;;;;5.72;2.72;;;;;;;18.86;38.73;101220.47;7401461;19;20018;-68
2023/06/06 00:28:01;;;;;;;4.00;2.13;;;;;;;18.83;38.70;101214.44;7401333;19;20023;-68
2023/06/06 00:30:29;;;;;;;3.75;2.15;;;;;;;18.80;38.89;101220.75;7400780;19;20086;-67
2023/06/06 00:32:58;;;;;;;3.08;2.08;;;;;;;18.76;38.81;101218.34;7398485;19;20086;-68
2023/06/06 00:35:26;;;;;;;2.90;2.03;;;;;;;18.73;38.74;101217.56;7401092;19;20078;-68
2023/06/06 00:37:57;;;;;;;3.92;2.78;;;;;;;18.70;39.04;101219.50;7400710;19;20085;-68
2023/06/06 00:40:26;;;;;;;4.53;2.20;;;;;;;18.65;39.52;101217.09;7398197;19;20081;-67
2023/06/06 00:42:55;;;;;;;3.10;2.55;;;;;;;18.61;39.59;101226.13;7400991;19;20098;-68
2023/06/06 00:45:23;;;;;;;3.00;2.10;;;;;;;18.55;39.33;101221.97;7398334;19;20014;-67
2023/06/06 00:47:52;;;;;;;4.45;2.47;;;;;;;18.52;39.54;101218.59;7398067;19;20019;-67
2023/06/06 00:50:23;;;;;;;4.03;2.58;;;;;;;18.48;40.01;101225.00;7400638;19;20078;-67
2023/06/06 00:52:51;;;;;;;3.00;2.30;;;;;;;18.43;40.24;101224.34;7398436;19;20019;-67
2023/06/06 00:55:23;;;;;;;6.38;3.00;;;;;;;18.40;40.24;101220.03;7398743;19;20073;-68
2023/06/06 00:57:54;;;;;;;10.38;2.47;;;;;;;18.37;40.32;101217.50;7398047;19;20018;-68
2023/06/06 01:00:23;;;;;;;4.55;2.60;;;;;;;18.32;40.12;101222.19;7399766;19;20035;-68
2023/06/06 01:02:52;;;;;;;5.40;2.90;;;;;;;18.29;40.29;101215.22;7399711;19;20036;-68
2023/06/06 01:05:21;;;;;;;3.92;2.75;;;;;;;18.26;40.40;101225.13;7400174;19;20019;-68
2023/06/06 01:07:51;;;;;;;3.10;2.50;;;;;;;18.23;40.73;101219.00;7397227;19;20007;-68
2023/06/06 01:10:20;;;;;;;3.92;3.00;;;;;;;18.20;40.50;101216.50;7399627;19;20014;-68
2023/06/06 01:12:59;;;;;;;6.18;2.72;;;;;;;18.17;40.97;101221.09;7400545;19;20025;-66
2023/06/06 01:15:34;;;;;;;3.33;2.63;;;;;;;18.14;40.89;101221.25;7399498;19;20437;-66
2023/06/06 01:18:04;;;;;;;6.32;2.60;;;;;;;18.10;41.04;101222.31;7400161;19;20070;-66
2023/06/06 01:20:34;;;;;;;5.63;2.63;;;;;;;18.07;40.96;101212.69;7398895;19;20018;-66
2023/06/06 01:23:05;;;;;;;3.67;2.70;;;;;;;18.04;41.36;101213.69;7399405;19;20347;-67
2023/06/06 01:25:37;;;;;;;2.95;2.00;;;;;;;18.01;41.51;101213.84;7399775;19;20078;-66
2023/06/06 01:28:13;;;;;;;8.18;2.70;;;;;;;17.97;41.34;101206.06;7399085;19;20488;-66
2023/06/06 01:30:43;;;;;;;4.45;2.10;;;;;;;17.94;41.98;101214.19;7396869;19;20025;-67
2023/06/06 01:33:24;;;;;;;6.28;2.40;;;;;;;17.89;41.93;101217.91;7396292;19;20541;-67
2023/06/06 01:36:02;;;;;;;5.68;2.83;;;;;;;17.86;42.28;101217.16;7398870;19;20086;-66
2023/06/06 01:38:37;;;;;;;3.85;2.40;;;;;;;17.81;42.34;101213.84;7399492;19;20018;-65
2023/06/06 01:41:07;;;;;;;5.10;2.60;;;;;;;17.79;42.61;101221.00;7400049;19;20014;-67
2023/06/06 01:43:37;;;;;;;4.45;2.47;;;;;;;17.73;42.71;101217.69;7400506;19;20163;-66
2023/06/06 01:46:08;;;;;;;5.35;3.00;;;;;;;17.69;42.75;101221.44;7397134;19;20074;-67
2023/06/06 01:48:38;;;;;;;5.85;2.78;;;;;;;17.66;42.92;101221.56;7399116;19;20081;-65
2023/06/06 01:51:07;;;;;;;3.58;2.63;;;;;;;17.63;43.24;101224.34;7398054;19;20066;-66
2023/06/06 01:53:38;;;;;;;3.22;2.50;;;;;;;17.59;43.40;101228.03;7396463;19;20094;-67
2023/06/06 01:56:13;;;;;;;3.50;2.72;;;;;;;17.55;43.74;101223.81;7396580;19;20086;-66
2023/06/06 01:58:42;;;;;;;4.05;2.58;;;;;;;17.48;43.78;101223.22;7396735;19;20070;-67
2023/06/06 02:01:11;;;;;;;9.13;3.20;;;;;;;17.40;43.89;101228.84;7395965;19;20082;-67
2023/06/06 02:03:39;;;;;;;5.78;3.13;;;;;;;17.35;44.12;101225.53;7396123;19;20041;-66
2023/06/06 02:06:08;;;;;;;4.28;2.78;;;;;;;17.30;44.34;101224.88;7397706;19;20010;-66
2023/06/06 02:08:39;;;;;;;4.18;2.47;;;;;;;17.24;44.54;101220.69;7398021;19;20074;-66
2023/06/06 02:11:08;;;;;;;4.90;2.80;;;;;;;17.20;44.82;101220.88;7396759;19;20373;-66
2023/06/06 02:13:36;;;;;;;4.57;2.40;;;;;;;17.12;45.16;101226.50;7397826;19;20094;-67
2023/06/06 02:16:05;;;;;;;3.95;2.30;;;;;;;17.05;45.21;101212.63;7395858;19;20023;-67
2023/06/06 02:18:34;;;;;;;4.00;2.53;;;;;;;17.03;45.45;101217.13;7397604;19;20078;-67
2023/06/06 02:21:02;;;;;;;4.95;2.85;;;;;;;17.01;45.58;101219.00;7394949;19;20485;-66
2023/06/06 02:23:39;;;;;;;5.88;2.47;;;;;;;17.00;46.22;101217.28;7397384;19;20160;-66
2023/06/06 02:26:09;;;;;;;4.13;2.70;;;;;;;16.97;46.12;101217.38;7395581;19;20083;-67
2023/06/06 02:28:37;;;;;;;4.55;2.42;;;;;;;16.95;46.13;101219.25;7396538;19;20038;-67
2023/06/06 02:31:06;;;;;;;3.47;2.55;;;;;;;16.93;46.26;101221.09;7396469;19;20027;-67
2023/06/06 02:33:35;;;;;;;4.97;2.70;;;;;;;16.90;46.44;101218.53;7397047;19;20010;-67
2023/06/06 02:36:03;;;;;;;6.28;2.80;;;;;;;16.87;46.63;101222.19;7397098;19;20430;-68
2023/06/06 02:38:31;;;;;;;4.35;2.65;;;;;;;16.85;46.79;101225.81;7397001;19;20077;-67
2023/06/06 02:41:03;;;;;;;4.72;2.55;;;;;;;16.84;46.77;101232.88;7395734;19;20082;-64
2023/06/06 02:43:31;;;;;;;4.43;2.47;;;;;;;16.84;46.70;101237.34;7396461;19;20014;-64
2023/06/06 02:45:59;;;;;;;5.82;2.90;;;;;;;16.83;47.20;101235.59;7393163;19;20090;-64
2023/06/06 02:48:28;;;;;;;5.20;2.78;;;;;;;16.83;46.92;101236.44;7396660;19;20382;-65
2023/06/06 02:50:56;;;;;;;3.75;2.80;;;;;;;16.82;47.13;101231.22;7396039;19;20088;-64
2023/06/06 02:53:27;;;;;;;3.38;2.78;;;;;;;16.80;47.11;101226.00;7396592;19;20019;-64
2023/06/06 02:55:55;;;;;;;3.55;2.75;;;;;;;16.78;47.17;101222.53;7394741;19;20481;-64
2023/06/06 02:58:30;;;;;;;4.22;2.83;;;;;;;16.76;47.11;101221.75;7394526;19;20097;-65
2023/06/06 03:00:59;;;;;;;4.13;3.10;;;;;;;16.75;47.05;101223.50;7394121;19;20035;-65
2023/06/06 03:03:27;;;;;;;5.60;3.22;;;;;;;16.72;47.50;101214.81;7395813;19;20473;-63
2023/06/06 03:05:57;;;;;;;3.80;2.78;;;;;;;16.64;47.29;101212.50;7396214;19;20077;-64
2023/06/06 03:08:26;;;;;;;6.30;2.95;;;;;;;16.60;47.59;101211.78;7396078;19;20098;-64
2023/06/06 03:10:54;;;;;;;3.97;3.40;;;;;;;16.56;47.77;101212.78;7395437;19;20078;-64
2023/06/06 03:13:23;;;;;;;4.03;2.58;;;;;;;16.53;48.17;101223.53;7394041;19;20035;-63
2023/06/06 03:15:54;;;;;;;6.45;2.80;;;;;;;16.51;48.38;101230.66;7395794;19;20025;-63
2023/06/06 03:18:24;;;;;;;5.95;2.67;;;;;;;16.53;48.32;101220.88;7393765;19;20038;-63
2023/06/06 03:20:59;;;;;;;2.88;2.33;;;;;;;16.55;48.25;101215.50;7394275;19;20014;-63
2023/06/06 03:23:28;;;;;;;7.15;2.90;;;;;;;16.56;48.21;101209.28;7393575;19;20066;-64
2023/06/06 03:25:56;;;;;;;8.52;3.20;;;;;;;16.57;48.78;101208.38;7395375;19;20085;-64
2023/06/06 03:28:25;;;;;;;6.43;2.83;;;;;;;16.59;48.58;101217.09;7395230;19;20433;-63
2023/06/06 03:30:56;;;;;;;5.30;2.75;;;;;;;16.59;49.01;101207.38;7394818;19;20085;-64
2023/06/06 03:33:24;;;;;;;3.95;2.72;;;;;;;16.62;48.96;101209.06;7395568;19;20078;-64
2023/06/06 03:35:53;;;;;;;5.32;2.50;;;;;;;16.64;49.12;101212.50;7393567;19;20095;-65
2023/06/06 03:38:21;;;;;;;4.50;2.45;;;;;;;16.65;49.19;101214.22;7392752;19;20074;-65
2023/06/06 03:40:49;;;;;;;3.95;2.88;;;;;;;16.66;49.24;101209.81;7393411;19;20194;-64
2023/06/06 03:43:18;;;;;;;7.35;2.70;;;;;;;16.68;49.45;101211.47;7392886;19;20078;-64
2023/06/06 03:45:46;;;;;;;3.67;2.70;;;;;;;16.68;49.46;101205.28;7392964;19;20086;-64
2023/06/06 03:48:17;;;;;;;3.90;2.40;;;;;;;16.71;49.64;101211.31;7394996;19;20074;-64
2023/06/06 03:50:46;;;;;;;5.32;2.95;;;;;;;16.73;49.73;101213.91;7393066;19;20421;-64
2023/06/06 03:53:16;;;;;;;4.15;3.38;;;;;;;16.73;49.64;101209.50;7394971;19;20019;-64
2023/06/06 03:55:44;;;;;;;6.28;2.72;;;;;;;16.74;49.84;101220.94;7393075;19;20011;-63
2023/06/06 03:58:13;;;;;;;5.65;2.80;;;;;;;16.71;49.96;101226.38;7400626;19;20031;-64
2023/06/06 04:00:43;;;;;;;5.88;2.95;;;;;;;16.68;49.66;101218.53;7400908;19;20417;-65
2023/06/06 04:03:12;;;;;;;4.38;2.50;;;;;;;16.65;49.84;101214.22;7399767;19;20079;-63
2023/06/06 04:05:45;;;;;;;5.50;2.80;;;;;;;16.65;49.95;101210.72;7398499;19;20504;-64
2023/06/06 04:08:13;;;;;;;5.50;3.38;;;;;;;16.65;49.73;101211.56;7402002;19;20023;-64
2023/06/06 04:10:42;;;;;;;4.88;2.97;;;;;;;16.67;49.76;101214.16;7400460;19;20474;-64
2023/06/06 04:13:16;;;;;;;5.55;3.00;;;;;;;16.69;49.72;101207.00;7400823;19;20482;-64
2023/06/06 04:15:45;;;;;;;4.90;2.15;;;;;;;16.73;50.02;101208.59;7402187;19;20031;-65
2023/06/06 04:18:14;;;;;;;6.18;2.92;;;;;;;16.74;50.02;101211.22;7398321;19;20010;-66
2023/06/06 04:20:46;;;;;;;7.57;3.70;;;;;;;16.78;49.97;101206.63;7398090;19;20010;-67
2023/06/06 04:23:14;;;;;;;7.95;3.35;;;;;;;16.84;50.10;101208.19;7397926;19;20015;-67
2023/06/06 04:25:43;;;;;;;8.75;3.92;;;;;;;16.87;49.92;101211.59;7400912;19;20544;-65
2023/06/06 04:28:11;;;;;;;4.00;2.92;;;;;;;16.92;49.93;101208.75;7400866;19;20425;-66
2023/06/06 04:30:40;;;;;;;7.47;3.03;;;;;;;16.94;49.96;101207.75;7397731;19;20019;-66
2023/06/06 04:33:09;;;;;;;6.15;2.40;;;;;;;16.96;49.87;101207.72;7400686;19;20047;-67
2023/06/06 04:35:42;;;;;;;3.63;2.72;;;;;;;16.94;50.09;101210.41;7398157;19;20035;-67
2023/06/06 04:38:18;;;;;;;7.32;2.97;;;;;;;16.92;50.23;101211.41;7400726;19;20102;-66
2023/06/06 04:40:50;;;;;;;5.45;2.92;;;;;;;16.89;50.46;101214.16;7397268;19;20022;-67
2023/06/06 04:43:23;;;;;;;16.40;8.52;;;;;;;16.87;50.39;101222.19;7397156;19;20082;-67
2023/06/06 04:45:53;;;;;;;5.25;2.92;;;;;;;16.87;50.69;101221.31;7397756;19;20386;-66
2023/06/06 04:48:25;;;;;;;6.72;3.10;;;;;;;16.89;50.68;101216.81;7401629;19;20021;-66
2023/06/06 04:50:55;;;;;;;6.53;3.50;;;;;;;16.93;50.55;101219.31;7397531;19;20019;-66
2023/06/06 04:53:26;;;;;;;3.88;2.70;;;;;;;16.98;50.83;101216.47;7399584;19;20446;-66
2023/06/06 04:55:55;;;;;;;4.47;2.85;;;;;;;16.99;50.57;101218.19;7396817;19;20015;-66
2023/06/06 04:58:25;;;;;;;6.35;3.45;;;;;;;17.02;50.69;101220.72;7396877;19;20014;-68
2023/06/06 05:00:57;;;;;;;8.70;4.47;;;;;;;17.06;51.05;101224.97;7396198;19;20022;-67
2023/06/06 05:03:27;;;;;;;9.10;3.35;;;;;;;17.10;50.96;101223.91;7396558;19;20108;-66
2023/06/06 05:05:56;;;;;;;6.75;3.08;;;;;;;17.17;51.00;101228.97;7398762;19;20053;-67
2023/06/06 05:08:31;;;;;;;8.77;4.45;;;;;;;17.22;50.84;101225.19;7395050;19;20111;-67
2023/06/06 05:11:00;;;;;;;4.85;2.88;;;;;;;17.30;50.69;101230.19;7398536;19;20030;-67
2023/06/06 05:13:28;;;;;;;5.10;2.92;;;;;;;17.35;50.34;101222.88;7396269;19;20506;-67
2023/06/06 05:15:57;;;;;;;5.25;3.25;;;;;;;17.40;50.25;101223.56;7398763;19;20018;-67
2023/06/06 05:18:25;;;;;;;6.00;3.13;;;;;;;17.47;50.30;101225.94;7396235;19;20023;-66
2023/06/06 05:20:54;;;;;;;7.65;2.85;;;;;;;17.53;50.26;101229.19;7395366;19;20023;-66
2023/06/06 05:23:24;;;;;;;6.22;3.28;;;;;;;17.59;49.77;101231.56;7396189;19;20023;-67
2023/06/06 05:25:56;;;;;;;6.53;3.25;;;;;;;17.67;49.69;101235.69;7396236;19;20041;-67
2023/06/06 05:28:25;;;;;;;5.25;2.80;;;;;;;17.74;49.54;101235.34;7397493;19;20486;-66
2023/06/06 05:30:56;;;;;;;6.97;3.10;;;;;;;17.82;49.35;101236.78;7397611;19;20014;-67
2023/06/06 05:33:25;;;;;;;4.82;2.45;;;;;;;17.88;48.99;101233.88;7399277;19;20014;-67
2023/06/06 05:35:55;;;;;;;5.82;3.08;;;;;;;17.96;48.99;101238.84;7396443;19;20023;-67
2023/06/06 05:38:25;;;;;;;3.83;2.60;;;;;;;18.00;48.49;101236.00;7399725;19;20010;-66
2023/06/06 05:40:56;;;;;;;6.32;2.97;;;;;;;18.06;48.71;101235.72;7396200;19;20019;-67
2023/06/06 05:43:24;;;;;;;14.45;9.73;;;;;;;18.15;48.34;101247.72;7395877;19;20027;-67
2023/06/06 05:45:53;;;;;;;8.25;4.10;;;;;;;18.25;48.17;101237.56;7397963;19;20035;-66
2023/06/06 05:48:22;;;;;;;7.60;4.35;;;;;;;18.33;48.03;101235.38;7397607;19;20538;-66
2023/06/06 05:50:50;;;;;;;8.73;4.95;;;;;;;18.43;47.79;101240.28;7397931;19;20018;-69
2023/06/06 05:53:19;;;;;;;5.20;3.10;;;;;;;18.51;47.33;101236.34;7397961;19;20019;-68
2023/06/06 05:55:47;;;;;;;6.25;3.80;;;;;;;18.61;47.41;101238.56;7396726;19;20014;-67
2023/06/06 05:58:18;;;;;;;12.93;6.32;;;;;;;18.69;47.17;101229.28;7398317;19;20022;-67
2023/06/06 06:00:47;;;;;;;7.40;4.25;;;;;;;18.81;46.84;101238.44;7397518;19;20018;-68
2023/06/06 06:03:16;;;;;;;8.75;3.20;;;;;;;18.89;46.69;101238.06;7395904;19;20014;-68
2023/06/06 06:05:44;;;;;;;10.43;5.72;;;;;;;18.97;46.50;101235.94;7397622;19;20022;-66
2023/06/06 06:08:14;;;;;;;7.88;4.70;;;;;;;19.04;46.65;101234.72;7397254;19;20014;-66
2023/06/06 06:10:42;;;;;;;5.20;3.55;;;;;;;19.12;46.50;101241.41;7397003;19;20032;-67
2023/06/06 06:13:10;;;;;;;6.20;3.40;;;;;;;19.21;46.10;101246.31;7397527;19;20022;-67
2023/06/06 06:15:41;;;;;;;6.32;2.95;;;;;;;19.29;46.06;101245.91;7396182;19;20086;-66
2023/06/06 06:18:10;;;;;;;10.32;4.82;;;;;;;19.35;45.62;101246.44;7395550;19;20019;-67
2023/06/06 06:20:39;;;;;;;7.85;3.55;;;;;;;19.43;45.94;101247.88;7394361;19;20078;-67
2023/06/06 06:23:07;;;;;;;7.10;3.50;;;;;;;19.51;45.53;101253.66;7396129;19;20011;-67
2023/06/06 06:25:36;;;;;;;5.53;3.63;;;;;;;19.56;45.49;101256.94;7397457;19;20022;-66
2023/06/06 06:28:05;;;;;;;6.32;3.83;;;;;;;19.60;45.25;101253.19;7394886;19;20027;-66
2023/06/06 06:30:33;;;;;;;5.65;3.33;;;;;;;19.65;44.47;101264.47;7394544;19;20018;-67
2023/06/06 06:33:04;;;;;;;7.13;4.72;;;;;;;19.69;44.49;101258.03;7394867;19;20018;-67
2023/06/06 06:35:33;;;;;;;8.55;3.97;;;;;;;19.73;44.16;101263.19;7397454;19;20027;-67
2023/06/06 06:38:01;;;;;;;8.00;4.40;;;;;;;19.75;43.98;101261.31;7396219;19;20028;-65
2023/06/06 06:40:29;;;;;;;6.78;4.38;;;;;;;19.80;44.03;101259.25;7396905;19;20031;-65
2023/06/06 06:42:58;;;;;;;6.68;4.32;;;;;;;19.83;44.32;101270.66;7395134;19;20509;-66
2023/06/06 06:45:26;;;;;;;5.68;3.35;;;;;;;19.85;43.87;101273.22;7395809;19;20031;-67
2023/06/06 06:47:55;;;;;;;6.43;5.10;;;;;;;19.87;43.96;101271.34;7395714;19;20014;-65
2023/06/06 06:50:26;;;;;;;4.20;3.60;;;;;;;19.90;43.61;101270.34;7394875;19;20481;-67
2023/06/06 06:52:56;;;;;;;7.43;4.80;;;;;;;19.92;43.96;101268.47;7394004;19;20423;-67
2023/06/06 06:55:26;;;;;;;11.75;3.95;;;;;;;19.96;43.61;101270.84;7394820;19;20074;-67
2023/06/06 06:57:56;;;;;;;9.43;4.35;;;;;;;20.00;43.85;101271.56;7395600;19;20408;-67
2023/06/06 07:00:31;;;;;;;9.38;4.45;;;;;;;20.04;43.87;101267.78;7395495;19;20010;-67
2023/06/06 07:02:59;;;;;;;7.85;3.28;;;;;;;20.10;43.76;101275.44;7395063;19;20382;-67
2023/06/06 07:05:30;;;;;;;6.30;3.58;;;;;;;20.14;43.79;101274.38;7393551;19;20395;-66
2023/06/06 07:07:59;;;;;;;7.63;3.90;;;;;;;20.20;43.81;101277.63;7395573;19;20439;-66
2023/06/06 07:10:31;;;;;;;7.68;4.20;;;;;;;20.23;43.67;101278.31;7393011;19;20528;-65
2023/06/06 07:13:00;;;;;;;9.73;3.85;;;;;;;20.27;43.36;101279.88;7394237;19;20433;-66
2023/06/06 07:15:28;;;;;;;5.82;3.53;;;;;;;20.30;43.45;101279.69;7393809;19;20014;-66
2023/06/06 07:17:57;;;;;;;7.75;4.07;;;;;;;20.34;43.30;101285.72;7394798;19;20018;-66
2023/06/06 07:20:26;;;;;;;6.40;3.75;;;;;;;20.38;43.10;101279.28;7393696;19;20022;-67
2023/06/06 07:22:57;;;;;;;12.23;4.90;;;;;;;20.43;42.72;101277.22;7393423;19;20019;-67
2023/06/06 07:25:26;;;;;;;5.95;4.43;;;;;;;20.51;42.89;101271.50;7393750;19;20137;-66
2023/06/06 07:27:55;;;;;;;8.35;4.10;;;;;;;20.57;42.60;101272.94;7395366;19;20027;-67
2023/06/06 07:30:23;;;;;;;8.45;4.45;;;;;;;20.62;42.26;101279.72;7394253;19;20011;-67
2023/06/06 07:32:52;;;;;;;7.82;4.63;;;;;;;20.68;42.66;101276.72;7393300;19;20432;-66
2023/06/06 07:35:21;;;;;;;6.78;3.92;;;;;;;20.74;42.46;101277.34;7392752;19;20022;-66
2023/06/06 07:37:50;;;;;;;5.25;3.88;;;;;;;20.79;41.96;101278.00;7394777;19;20027;-66
2023/06/06 07:40:21;;;;;;;8.20;4.13;;;;;;;20.84;42.40;101273.25;7395678;19;20023;-67
2023/06/06 07:42:50;;;;;;;7.68;4.35;;;;;;;20.93;42.25;101285.19;7393601;19;20091;-66
2023/06/06 07:45:19;;;;;;;7.68;4.00;;;;;;;21.02;41.84;101273.16;7392403;19;20486;-66
2023/06/06 07:47:47;;;;;;;5.25;3.78;;;;;;;21.10;41.65;101277.06;7394261;19;20046;-67
2023/06/06 07:50:17;;;;;;;7.85;4.45;;;;;;;21.19;41.86;101270.34;7394075;19;20019;-68
2023/06/06 07:52:46;;;;;;;9.95;5.05;;;;;;;21.27;41.46;101276.09;7393962;19;20529;-66
2023/06/06 07:55:16;;;;;;;7.90;5.57;;;;;;;21.34;41.39;101270.41;7392990;19;20082;-66
2023/06/06 07:57:47;;;;;;;11.32;4.88;;;;;;;21.39;41.32;101276.34;7393750;19;20018;-66
2023/06/06 08:00:17;;;;;;;8.27;5.35;;;;;;;21.43;41.11;101270.72;7393271;19;20022;-66
2023/06/06 08:02:45;;;;;;;7.55;4.40;;;;;;;21.47;40.84;101277.59;7391931;19;20050;-65
2023/06/06 08:05:14;;;;;;;11.10;5.13;;;;;;;21.51;40.88;101270.28;7393980;19;20039;-65
2023/06/06 08:07:42;;;;;;;10.40;5.63;;;;;;;21.57;40.51;101272.63;7393616;19;20023;-66
2023/06/06 08:10:11;;;;;;;5.55;4.30;;;;;;;21.62;40.64;101270.53;7392936;19;20497;-66
2023/06/06 08:12:40;;;;;;;9.55;4.88;;;;;;;21.71;40.14;101268.22;7391747;19;20023;-67
2023/06/06 08:15:13;;;;;;;9.48;5.50;;;;;;;21.77;40.24;101276.75;7391442;19;20099;-66
2023/06/06 08:17:41;;;;;;;8.38;4.78;;;;;;;21.83;40.45;101270.16;7391331;19;20011;-66
2023/06/06 08:20:11;;;;;;;10.95;4.80;;;;;;;21.88;40.14;101276.09;7391107;19;20014;-66
2023/06/06 08:22:40;;;;;;;7.72;5.13;;;;;;;21.92;39.67;101272.25;7390983;19;20481;-66
2023/06/06 08:25:10;;;;;;;9.38;5.57;;;;;;;21.94;39.55;101267.69;7394583;19;20015;-66
2023/06/06 08:27:39;;;;;;;6.78;4.75;;;;;;;21.98;39.84;101265.69;7392127;19;20027;-66
2023/06/06 08:30:11;;;;;;;9.63;5.22;;;;;;;22.01;39.46;101265.50;7393225;19;20363;-66
2023/06/06 08:32:40;;;;;;;9.20;5.20;;;;;;;22.04;39.58;101267.13;7393809;19;20027;-65
2023/06/06 08:35:09;;;;;;;15.57;9.10;;;;;;;22.06;39.69;101265.22;7393334;19;20033;-67
2023/06/06 08:37:38;;;;;;;8.63;6.80;;;;;;;22.11;39.55;101273.81;7392877;19;20042;-66
2023/06/06 08:40:08;;;;;;;7.68;5.10;;;;;;;22.16;39.57;101263.69;7390396;19;20014;-65
2023/06/06 08:42:40;;;;;;;10.32;4.45;;;;;;;22.19;39.46;101263.50;7392860;19;20360;-65
2023/06/06 08:45:12;;;;;;;7.15;4.28;;;;;;;22.23;39.26;101272.16;7398677;19;20019;-65
2023/06/06 08:47:43;;;;;;;8.23;4.65;;;;;;;22.25;39.14;101271.13;7398351;19;20094;-69
2023/06/06 08:50:12;;;;;;;8.30;5.22;;;;;;;22.28;39.60;101262.94;7400486;19;20022;-67
2023/06/06 08:52:43;;;;;;;7.68;3.58;;;;;;;22.31;39.11;101264.53;7400176;19;20044;-68
2023/06/06 08:55:12;;;;;;;8.23;4.00;;;;;;;22.33;39.15;101259.09;7400355;19;20089;-69
2023/06/06 08:57:44;;;;;;;6.22;3.63;;;;;;;22.34;38.97;101266.16;7396858;19;20485;-68
2023/06/06 09:00:21;;;;;;;5.18;3.28;;;;;;;22.35;38.83;101255.38;7397843;19;20018;-67
2023/06/06 09:02:50;;;;;;;8.07;3.60;;;;;;;22.39;38.75;101259.63;7394656;19;20018;-67
2023/06/06 09:05:21;;;;;;;10.82;3.92;;;;;;;22.44;38.96;101261.97;7399264;19;20027;-69
2023/06/06 09:07:52;;;;;;;7.20;4.47;;;;;;;22.43;39.26;101261.13;7399559;19;20029;-67
2023/06/06 09:10:20;;;;;;;6.03;4.00;;;;;;;22.48;39.00;101260.81;7399644;19;20015;-67
2023/06/06 09:12:49;;;;;;;6.03;3.65;;;;;;;22.54;38.60;101259.59;7397379;19;20054;-68
2023/06/06 09:15:20;;;;;;;8.20;4.13;;;;;;;22.56;38.82;101263.88;7396683;19;20032;-68
2023/06/06 09:17:54;;;;;;;7.25;4.32;;;;;;;22.61;38.65;101260.91;7398990;19;20089;-68
2023/06/06 09:20:24;;;;;;;6.32;3.50;;;;;;;22.66;38.96;101264.16;7397852;19;20019;-67
2023/06/06 09:23:00;;;;;;;7.70;3.28;;;;;;;22.66;38.76;101263.28;7396182;19;20015;-67
2023/06/06 09:25:30;;;;;;;4.55;3.35;;;;;;;22.68;38.77;101261.38;7398369;19;20019;-68
2023/06/06 09:28:01;;;;;;;6.97;4.55;;;;;;;22.71;39.14;101255.81;7397990;19;20422;-68
2023/06/06 09:30:35;;;;;;;4.85;3.75;;;;;;;22.74;39.01;101258.28;7397893;19;20532;-68
2023/06/06 09:33:05;;;;;;;9.82;4.28;;;;;;;22.81;38.78;101264.97;7398861;19;20020;-68
2023/06/06 09:35:34;;;;;;;6.00;2.90;;;;;;;22.86;38.80;101270.00;7398413;19;20415;-68
2023/06/06 09:38:09;;;;;;;5.10;3.40;;;;;;;22.89;39.07;101267.97;7395440;19;20032;-68
2023/06/06 09:40:47;;;;;;;5.28;3.60;;;;;;;22.91;39.07;101258.06;7395324;19;20023;-68
2023/06/06 09:43:16;;;;;;;6.93;3.47;;;;;;;22.92;38.95;101261.56;7397406;19;20074;-68
2023/06/06 09:45:55;;;;;;;6.03;3.92;;;;;;;22.91;38.90;101260.72;7398039;19;20068;-68
2023/06/06 09:48:25;;;;;;;6.03;3.17;;;;;;;22.93;39.32;101269.50;7397517;19;20014;-68
2023/06/06 09:50:54;;;;;;;9.52;3.03;;;;;;;22.96;39.21;101256.88;7395524;19;20014;-68
2023/06/06 09:53:26;;;;;;;7.63;3.92;;;;;;;22.96;39.15;101252.38;7397474;19;20031;-68
2023/06/06 09:55:57;;;;;;;5.15;3.88;;;;;;;22.98;39.18;101255.81;7395524;19;20496;-68
2023/06/06 09:58:28;;;;;;;7.75;3.90;;;;;;;22.97;38.47;101256.78;7397817;19;20070;-68
2023/06/06 10:01:01;;;;;;;9.02;4.65;;;;;;;22.96;38.77;101249.69;7396270;19;20014;-68
2023/06/06 10:03:32;;;;;;;7.20;4.00;;;;;;;22.96;38.68;101249.69;7396336;19;20027;-68
2023/06/06 10:06:01;;;;;;;6.68;3.70;;;;;;;22.96;38.50;101246.19;7393447;19;20014;-69
2023/06/06 10:08:30;;;;;;;5.05;3.25;;;;;;;23.00;38.51;101250.34;7397128;19;20090;-69
2023/06/06 10:10:59;;;;;;;5.55;4.10;;;;;;;23.03;38.27;101247.50;7397647;19;20126;-69
2023/06/06 10:13:28;;;;;;;7.25;4.00;;;;;;;23.04;38.37;101255.41;7394523;19;20026;-69
2023/06/06 10:16:01;;;;;;;7.18;5.97;;;;;;;23.08;38.04;101256.06;7395887;19;20027;-68
2023/06/06 10:18:30;;;;;;;9.40;5.05;;;;;;;23.13;38.08;101259.31;7396700;19;20011;-68
2023/06/06 10:21:00;;;;;;;5.10;4.57;;;;;;;23.23;37.65;101255.06;7395832;19;20031;-68
2023/06/06 10:23:28;;;;;;;9.82;5.03;;;;;;;23.34;37.85;101253.47;7394197;19;20031;-68
2023/06/06 10:25:58;;;;;;;8.57;4.82;;;;;;;23.44;37.83;101251.88;7396104;19;20022;-68
2023/06/06 10:28:32;;;;;;;7.28;5.03;;;;;;;23.50;37.61;101256.00;7396147;19;20022;-68
2023/06/06 10:31:07;;;;;;;6.68;5.38;;;;;;;23.53;38.00;101256.63;7394818;19;20019;-68
2023/06/06 10:33:42;;;;;;;10.25;6.30;;;;;;;23.55;37.63;101252.00;7396463;19;20031;-66
2023/06/06 10:36:15;;;;;;;9.50;6.38;;;;;;;23.55;37.96;101253.84;7394195;19;20019;-68
2023/06/06 10:38:44;;;;;;;6.13;5.40;;;;;;;23.55;38.37;101265.41;7394315;19;20014;-68
2023/06/06 10:41:17;;;;;;;6.03;5.43;;;;;;;23.54;38.43;101255.69;7394708;19;20504;-68
2023/06/06 10:43:53;;;;;;;5.70;5.10;;;;;;;23.57;38.31;101259.97;7394149;19;20031;-69
2023/06/06 10:46:24;;;;;;;6.57;4.35;;;;;;;23.57;38.61;101262.66;7395365;19;20021;-68
2023/06/06 10:49:00;;;;;;;5.60;3.85;;;;;;;23.59;39.02;101263.38;7396031;19;20027;-68
2023/06/06 10:51:34;;;;;;;4.60;3.50;;;;;;;23.60;39.32;101259.75;7394380;19;20018;-68
2023/06/06 10:54:17;;;;;;;5.10;3.50;;;;;;;23.56;39.64;101255.56;7393342;19;20489;-69
2023/06/06 10:56:47;;;;;;;6.50;4.70;;;;;;;23.55;40.21;101257.38;7394128;19;20021;-68
2023/06/06 10:59:16;;;;;;;7.13;3.72;;;;;;;23.51;39.95;101253.19;7393785;19;20018;-67
2023/06/06 11:01:48;;;;;;;7.68;3.92;;;;;;;23.49;40.37;101263.16;7394509;19;20030;-68
2023/06/06 11:04:20;;;;;;;4.60;4.05;;;;;;;23.49;40.99;101262.31;7394318;19;20039;-68
2023/06/06 11:06:50;;;;;;;8.87;3.53;;;;;;;23.50;40.83;101262.19;7391962;19;20496;-69
2023/06/06 11:09:22;;;;;;;4.75;3.85;;;;;;;23.51;40.42;101260.38;7394939;19;20074;-69
2023/06/06 11:11:51;;;;;;;5.70;3.70;;;;;;;23.50;40.69;101256.84;7394235;19;20031;-68
2023/06/06 11:14:24;;;;;;;7.32;3.92;;;;;;;23.53;40.63;101261.13;7393513;19;20108;-68
2023/06/06 11:17:05;;;;;;;6.15;3.80;;;;;;;23.58;41.15;101253.63;7394330;19;20019;-68
2023/06/06 11:19:40;;;;;;;5.15;4.40;;;;;;;23.62;40.65;101251.59;7394040;19;20018;-68
2023/06/06 11:22:21;;;;;;;4.90;3.58;;;;;;;23.61;40.73;101250.75;7393227;19;20038;-68
2023/06/06 11:24:50;;;;;;;5.13;4.25;;;;;;;23.63;41.27;101248.81;7393152;19;20018;-68
2023/06/06 11:27:19;;;;;;;5.40;4.75;;;;;;;23.67;41.52;101252.13;7394988;19;20077;-69
2023/06/06 11:29:48;;;;;;;5.05;4.28;;;;;;;23.72;41.41;101250.00;7395026;19;20023;-69
2023/06/06 11:32:19;;;;;;;6.00;3.90;;;;;;;23.79;41.09;101243.25;7393496;19;20029;-70
2023/06/06 11:34:47;;;;;;;7.05;4.90;;;;;;;23.81;40.82;101246.69;7393317;19;20019;-68
2023/06/06 11:37:16;;;;;;;7.20;4.95;;;;;;;23.85;40.66;101245.50;7393114;19;20486;-68